Aviation Digital Data Service (ADDS)

Output produced by METARs form (0227 UTC 26 April 2019)
found at http://www.aviationweather.gov/metar/data/
 
NSFA 260200Z 26009KT 230V300 9999 SCT026 31/27 Q1007 RMK NIL
NSFA 260100Z 27007KT 240V300 9999 BKN023 32/26 Q1007 RMK NIL
NSFA 260000Z 29006KT 9999 3500NW VCSH FEW018CB SCT045 32/26 Q1008 RMK CB TO NW AND SE
NSFA 252300Z 29007KT 9999 FEW020TCU BKN042 31/25 Q1009 RMK TCU TO NW
NSFA 252200Z 29007KT 9999 FEW020 FEW024TCU 31/25 Q1010 RMK TCU TO NW AND ESE
NSFA 252100Z 34004KT 9999 SCGT026 30/25 Q1011 RMK NIL
NSFA 252000Z 00000KT 9999 FEW027 30/25 Q1010 NOSIG
NSFA 251900Z 00000KT 9999 FEW025 BKN180 27/25 Q1010 RMK NIL
NSFA 251800Z 16003KT 9999 FEW026 SCT190 25/24 Q1009 RERA
NSFA 251700Z 17004KT 9999 DZ FEW020 SCT045 BKN130 26/24 Q1008 RERA
NSFA 251600Z 15003KT 9999 FEW026 26/24 Q1008 RMK NIL
NSFA 251500Z 13004KT 9999 FEW028 SCT290 25/24 Q1008 RMK NIL
NSFA 251400Z 18003KT 9999 FEW030 25/25 Q1008 RMK NIL
NSFA 251300Z 16004KT 9999 FEW025 26/25 Q1009
NSFA 251200Z 17003KT 9999 FEW028 26/25 Q1009 RMK NIL
NSFA 251100Z 14003KT 9999 FEW026 25/24 Q1009 NOSIG
NSFA 251000Z 00000KT 9999 FEW025 26/24 Q1009 NOSIG
NSFA 250900Z 16003KT 9999 FEW025 26/25 Q1009 RMK NIL
NSFA 250800Z 00000KT 9999 FEW024 26/25 Q1009 RMK NIL
NSFA 250700Z 00000KT 9999 FEW024 27/25 Q1009 RMK NIL
NSFA 250600Z 00000KT 9999 SCT024 28/25 Q1008 RMK NIL
NSFA 250500Z 00000KT 9999 SCT022 29/25 Q1007 RMK NIL
NSFA 250400Z VRB03KT 9999 SCT022 30/25 Q1007 RMK NIL
NSFA 250300Z VRB03KT 9999 SCT022 31/25 Q1006 RMK NIL
TAF NSFA 252320Z 2600/2624 15005KT 9999 FEW020 BKN040 
     PROB40 
     TEMPO 2602/2606 3000 TSRA BKN015 FEW018CB